createdAt,value
2019-01-05T00:09:10.622Z,6.10
2019-01-05T00:12:17.458Z,6.60
2019-01-05T00:15:24.181Z,5.67
2019-01-05T00:18:30.946Z,5.30
2019-01-05T00:21:37.706Z,5.33
2019-01-05T00:24:44.443Z,5.20
2019-01-05T00:27:51.187Z,5.03
2019-01-05T00:30:57.975Z,5.20
2019-01-05T00:33:55.803Z,5.70
2019-01-05T00:37:02.539Z,5.47
2019-01-05T00:40:09.282Z,5.37
2019-01-05T00:43:16.034Z,5.37
2019-01-05T00:46:22.783Z,5.10
2019-01-05T00:49:11.855Z,5.13
2019-01-05T00:52:18.646Z,4.77
2019-01-05T00:55:25.469Z,4.80
2019-01-05T01:01:11.919Z,4.57
2019-01-05T01:04:18.919Z,4.40
2019-01-05T01:07:24.022Z,4.40
2019-01-05T01:10:31.043Z,4.80
2019-01-05T01:13:37.983Z,4.27
2019-01-05T01:16:36.812Z,5.07
2019-01-05T01:19:43.572Z,3.93
2019-01-05T01:22:31.283Z,3.90
2019-01-05T01:25:38.051Z,3.60
2019-01-05T01:28:44.779Z,4.00
2019-01-05T01:31:51.533Z,3.87
2019-01-05T01:34:58.560Z,3.73
2019-01-05T01:38:02.559Z,3.50
2019-01-05T01:41:09.440Z,3.13
2019-01-05T01:44:15.609Z,3.53
2019-01-05T01:47:22.460Z,3.63
2019-01-05T01:50:29.243Z,3.80
2019-01-05T01:53:35.984Z,3.30
2019-01-05T02:05:35.292Z,3.90
2019-01-05T02:08:23.168Z,3.50
2019-01-05T02:11:12.288Z,3.97
2019-01-05T02:14:19.094Z,3.97
2019-01-05T02:17:25.888Z,3.73
2019-01-05T02:20:32.625Z,4.17
2019-01-05T02:23:39.340Z,3.60
2019-01-05T02:26:46.115Z,3.80
2019-01-05T02:29:52.865Z,3.60
2019-01-05T02:32:53.716Z,3.73
2019-01-05T02:35:57.988Z,3.63
2019-01-05T02:39:04.774Z,3.77
2019-01-05T02:42:35.570Z,3.47
2019-01-05T02:46:02.282Z,3.87
2019-01-05T02:49:15.320Z,3.77
2019-01-05T02:52:22.868Z,3.90
2019-01-05T02:55:25.540Z,3.53
2019-01-05T02:58:33.418Z,3.30
2019-01-05T03:01:32.280Z,3.93
2019-01-05T03:04:33.561Z,3.60
2019-01-05T03:07:37.905Z,3.27
2019-01-05T03:10:59.397Z,3.50
2019-01-05T03:14:23.761Z,3.33
2019-01-05T03:17:37.650Z,3.37
2019-01-05T03:20:40.852Z,3.27
2019-01-05T03:23:40.757Z,3.10
2019-01-05T03:26:45.311Z,3.23
2019-01-05T03:30:09.899Z,3.17
2019-01-05T03:33:18.468Z,3.10
2019-01-05T03:36:42.402Z,3.30
2019-01-05T03:39:40.394Z,2.67
2019-01-05T03:42:42.017Z,3.20
2019-01-05T03:45:52.581Z,3.07
2019-01-05T03:49:00.897Z,3.00
2019-01-05T03:52:10.313Z,3.23
2019-01-05T03:55:10.331Z,2.77
2019-01-05T03:58:32.240Z,3.07
2019-01-05T04:01:18.495Z,2.40
2019-01-05T04:04:13.358Z,3.27
2019-01-05T04:07:25.086Z,3.23
2019-01-05T04:10:55.802Z,3.07
2019-01-05T04:14:16.436Z,3.10
2019-01-05T04:17:22.286Z,2.90
2019-01-05T04:20:29.826Z,3.00
2019-01-05T04:23:42.286Z,3.00
2019-01-05T04:26:46.826Z,2.97
2019-01-05T04:29:54.308Z,3.10
2019-01-05T04:33:15.301Z,3.50
2019-01-05T04:36:39.198Z,2.70
2019-01-05T04:39:41.754Z,2.80
2019-01-05T04:42:41.910Z,2.77
2019-01-05T04:45:43.950Z,3.53
2019-01-05T04:49:06.355Z,3.30
2019-01-05T04:52:24.386Z,2.50
2019-01-05T04:55:34.298Z,2.83
2019-01-05T04:58:39.094Z,3.23
2019-01-05T05:01:50.002Z,3.50
2019-01-05T05:04:56.903Z,2.97
2019-01-05T05:07:58.235Z,2.80
2019-01-05T05:10:52.151Z,3.37
2019-01-05T05:13:49.811Z,2.57
2019-01-05T05:17:30.063Z,3.10
2019-01-05T05:20:32.252Z,2.40
2019-01-05T05:23:30.427Z,2.67
2019-01-05T05:26:27.299Z,2.70
2019-01-05T05:29:24.408Z,2.60
2019-01-05T05:32:41.327Z,2.40
2019-01-05T05:35:48.106Z,2.53
2019-01-05T05:39:00.699Z,2.77
2019-01-05T05:42:09.187Z,2.20
2019-01-05T05:45:20.570Z,2.47
2019-01-05T05:48:51.523Z,2.50
2019-01-05T05:52:06.523Z,2.17
2019-01-05T05:55:07.940Z,2.83
2019-01-05T05:58:10.215Z,2.23
2019-01-05T06:01:06.927Z,2.00
2019-01-05T06:04:28.827Z,1.90
2019-01-05T06:07:33.716Z,2.00
2019-01-05T06:10:39.180Z,2.37
2019-01-05T06:13:47.744Z,2.30
2019-01-05T06:16:43.347Z,1.90
2019-01-05T06:19:55.352Z,1.97
2019-01-05T06:22:55.703Z,2.23
2019-01-05T06:25:50.220Z,2.30
2019-01-05T06:29:04.336Z,2.07
2019-01-05T06:32:12.741Z,2.13
2019-01-05T06:35:21.428Z,1.73
2019-01-05T06:38:40.339Z,2.03
2019-01-05T06:41:45.524Z,1.60
2019-01-05T06:44:49.346Z,2.20
2019-01-05T06:47:57.876Z,2.07
2019-01-05T06:51:09.612Z,2.07
2019-01-05T06:54:21.468Z,2.07
2019-01-05T06:57:27.136Z,1.83
2019-01-05T07:00:52.664Z,2.10
2019-01-05T07:04:20.140Z,2.10
2019-01-05T07:07:31.244Z,2.00
2019-01-05T07:11:12.483Z,2.10
2019-01-05T07:14:25.634Z,2.00
2019-01-05T07:17:33.819Z,2.10
2019-01-05T07:20:54.497Z,2.33
2019-01-05T07:24:01.577Z,2.40
2019-01-05T07:27:07.017Z,2.37
2019-01-05T07:30:11.656Z,2.73
2019-01-05T07:33:30.193Z,2.37
2019-01-05T07:36:49.193Z,2.50
2019-01-05T07:40:09.957Z,2.63
2019-01-05T07:43:14.092Z,2.77
2019-01-05T07:46:25.630Z,2.60
2019-01-05T07:49:35.998Z,2.50
2019-01-05T07:52:40.185Z,2.33
2019-01-05T07:55:55.242Z,2.80
2019-01-05T07:59:06.793Z,2.43
2019-01-05T08:02:34.649Z,2.93
2019-01-05T08:05:42.849Z,2.80
2019-01-05T08:08:51.247Z,2.77
2019-01-05T08:12:00.876Z,2.73
2019-01-05T08:15:09.345Z,2.70
2019-01-05T08:18:24.145Z,2.57
2019-01-05T08:21:35.789Z,2.60
2019-01-05T08:24:39.923Z,2.57
2019-01-05T08:28:12.034Z,3.60
2019-01-05T08:31:11.061Z,3.13
2019-01-05T08:34:22.217Z,3.40
2019-01-05T08:37:55.283Z,3.67
2019-01-05T08:41:08.268Z,3.37
2019-01-05T08:47:30.591Z,3.10
2019-01-05T08:50:37.571Z,3.33
2019-01-05T08:53:44.307Z,3.47
2019-01-05T08:56:51.055Z,3.80
2019-01-05T08:59:57.796Z,3.90
2019-01-05T12:14:15.527Z,2.50
2019-01-05T12:17:22.256Z,2.47
2019-01-05T12:20:29.035Z,2.77
2019-01-05T12:23:35.831Z,3.10
2019-01-05T12:26:42.560Z,2.80
2019-01-05T12:29:49.319Z,2.20
2019-01-05T12:32:56.039Z,2.27
2019-01-05T12:36:02.799Z,2.30
2019-01-05T12:39:09.523Z,2.60
2019-01-05T12:42:16.273Z,2.60
2019-01-05T12:45:23.047Z,2.30
2019-01-05T12:48:29.811Z,1.77
2019-01-05T12:51:36.536Z,2.20
2019-01-05T12:54:43.276Z,2.77
2019-01-05T12:57:44.648Z,2.60
2019-01-05T13:00:51.475Z,3.30
2019-01-05T13:42:58.946Z,2.47
2019-01-05T13:46:05.929Z,2.37
2019-01-05T13:49:12.661Z,2.00
2019-01-05T13:52:19.377Z,2.27
2019-01-05T13:55:26.121Z,2.30
2019-01-05T13:58:32.841Z,2.67
2019-01-05T14:01:39.565Z,4.80
2019-01-05T14:04:27.116Z,2.23
2019-01-05T14:34:18.533Z,3.03
2019-01-05T14:37:16.965Z,2.67
2019-01-05T14:40:23.706Z,2.50
2019-01-05T14:43:30.437Z,2.60
2019-01-05T14:46:37.145Z,2.70
2019-01-05T14:49:43.884Z,2.90
2019-01-05T14:52:50.606Z,2.40
2019-01-05T14:55:57.381Z,2.10
2019-01-05T14:59:04.109Z,2.40
2019-01-05T15:02:10.844Z,2.80
2019-01-05T15:05:17.558Z,2.50
2019-01-05T15:49:48.286Z,3.07
2019-01-05T15:52:57.425Z,3.27
2019-01-05T15:56:04.163Z,4.70
2019-01-05T15:59:10.890Z,4.27
2019-01-05T16:01:58.421Z,3.97
2019-01-05T16:05:05.142Z,3.47
2019-01-05T17:40:29.378Z,3.87
2019-01-05T20:06:59.743Z,4.60
2019-01-05T20:09:39.571Z,4.20
2019-01-05T20:12:20.230Z,4.27
2019-01-05T21:00:14.746Z,3.30
2019-01-05T21:03:21.743Z,4.87
2019-01-05T21:06:28.555Z,5.40
2019-01-05T21:09:35.284Z,2.87
2019-01-05T21:15:33.865Z,4.03
2019-01-05T21:18:30.812Z,5.00
2019-01-05T21:21:22.752Z,3.77
2019-01-05T21:24:09.872Z,3.93
2019-01-05T21:26:56.631Z,3.33
2019-01-05T21:29:42.973Z,3.33
2019-01-05T21:32:36.644Z,3.73
2019-01-05T21:35:25.281Z,4.07
2019-01-05T21:38:18.835Z,4.33
2019-01-05T21:41:05.127Z,3.97
2019-01-05T21:44:08.016Z,3.50
2019-01-05T21:46:54.255Z,4.07
2019-01-05T21:49:42.011Z,3.50
2019-01-05T21:52:39.448Z,3.87
2019-01-05T21:55:26.004Z,4.17
2019-01-05T21:58:12.589Z,4.37
2019-01-05T22:00:59.076Z,4.17
2019-01-05T22:03:43.580Z,3.57
2019-01-05T22:06:30.376Z,3.87
2019-01-05T22:09:27.258Z,3.97
2019-01-05T22:12:10.324Z,4.20
2019-01-05T22:14:54.328Z,3.60
2019-01-05T22:17:41.204Z,2.60
2019-01-05T22:20:23.986Z,3.00
2019-01-05T22:23:12.160Z,3.20
2019-01-05T22:25:58.704Z,2.70
2019-01-05T22:29:01.538Z,2.87
2019-01-05T22:31:47.993Z,2.87
2019-01-05T22:34:38.442Z,2.70
2019-01-05T22:37:24.802Z,2.63
2019-01-05T22:40:12.014Z,2.53
2019-01-05T22:43:07.994Z,2.50
2019-01-05T22:45:54.426Z,2.57
2019-01-05T22:48:54.399Z,1.97
2019-01-05T22:51:45.106Z,2.50
2019-01-05T22:54:31.890Z,2.57
2019-01-05T22:57:22.546Z,2.43
2019-01-05T23:00:10.222Z,2.70
2019-01-05T23:03:16.322Z,2.83
2019-01-05T23:06:12.702Z,2.57
2019-01-05T23:09:09.198Z,2.27
2019-01-05T23:11:49.147Z,2.60
2019-01-05T23:14:36.766Z,2.90
2019-01-05T23:17:31.090Z,3.40
2019-01-05T23:20:16.378Z,3.63
2019-01-05T23:23:06.442Z,3.20
2019-01-05T23:25:58.043Z,3.70
2019-01-05T23:28:44.254Z,3.93
2019-01-05T23:31:26.482Z,3.30
2019-01-05T23:34:14.302Z,2.60
2019-01-05T23:37:00.576Z,3.60
2019-01-05T23:39:51.706Z,3.80
2019-01-05T23:42:39.298Z,2.53
2019-01-05T23:45:25.493Z,2.90
2019-01-05T23:48:19.237Z,3.03
2019-01-05T23:51:15.938Z,3.30
2019-01-05T23:54:02.158Z,3.60
2019-01-05T23:56:49.066Z,2.40
2019-01-05T23:59:42.530Z,2.30
